Time;durP1;ratioP1;P1;durP2;ratioP2;P2;SDS_P1;SDS_P2;PMS_P1;PMS_P2;Temp;Humidity;BMP_temperature;BMP_pressure;BME280_temperature;BME280_humidity;BME280_pressure;Samples;Min_cycle;Max_cycle;Signal;HPM_P1;HPM_P2
2022/04/17 00:01:02;;;;;;;4.03;2.90;;;;;;;;;;5044780;28;20025;-75
2022/04/17 00:03:31;;;;;;;4.95;3.33;;;;;;;;;;5044206;28;20132;-75
2022/04/17 00:05:57;;;;;;;3.85;3.45;;;;;;;;;;5040943;28;20014;-75
2022/04/17 00:08:24;;;;;;;4.90;3.42;;;;;;;;;;5046168;28;20084;-75
2022/04/17 00:10:50;;;;;;;4.50;3.58;;;;;;;;;;5043428;28;20490;-75
2022/04/17 00:13:16;;;;;;;4.13;3.42;;;;;;;;;;5042585;28;20041;-75
2022/04/17 00:15:43;;;;;;;5.97;3.28;;;;;;;;;;5044008;28;20112;-75
2022/04/17 00:18:09;;;;;;;5.53;4.07;;;;;;;;;;5045805;28;20028;-75
2022/04/17 00:20:38;;;;;;;9.60;4.40;;;;;;;;;;5047459;28;20047;-76
2022/04/17 00:23:04;;;;;;;6.97;4.20;;;;;;;;;;5046066;28;20094;-74
2022/04/17 00:25:30;;;;;;;4.28;3.70;;;;;;;;;;5047971;28;20487;-75
2022/04/17 00:27:56;;;;;;;4.82;4.28;;;;;;;;;;5045121;28;20108;-75
2022/04/17 00:30:22;;;;;;;6.85;4.45;;;;;;;;;;5045817;28;20048;-76
2022/04/17 00:32:48;;;;;;;4.70;4.13;;;;;;;;;;5045446;28;20040;-74
2022/04/17 00:35:14;;;;;;;5.03;4.22;;;;;;;;;;5045717;28;20415;-73
2022/04/17 00:37:40;;;;;;;6.78;4.68;;;;;;;;;;5044458;28;20029;-73
2022/04/17 00:40:07;;;;;;;7.63;4.40;;;;;;;;;;5047115;28;20028;-74
2022/04/17 00:42:33;;;;;;;6.32;4.63;;;;;;;;;;5041984;28;20380;-77
2022/04/17 00:44:59;;;;;;;9.38;4.90;;;;;;;;;;5049293;28;20059;-76
2022/04/17 00:47:25;;;;;;;6.03;4.13;;;;;;;;;;5042006;28;20068;-74
2022/04/17 00:49:51;;;;;;;7.68;4.38;;;;;;;;;;5038590;28;20029;-75
2022/04/17 00:52:20;;;;;;;8.27;5.38;;;;;;;;;;5045074;28;20033;-75
2022/04/17 00:54:48;;;;;;;8.27;4.90;;;;;;;;;;5042514;28;20024;-75
2022/04/17 00:57:16;;;;;;;6.03;4.88;;;;;;;;;;5040050;28;20360;-74
2022/04/17 00:59:43;;;;;;;7.13;4.65;;;;;;;;;;5040311;28;20491;-74
2022/04/17 01:02:10;;;;;;;9.05;4.95;;;;;;;;;;5043767;28;20383;-75
2022/04/17 01:04:36;;;;;;;6.38;4.35;;;;;;;;;;5041160;28;20042;-74
2022/04/17 01:07:02;;;;;;;5.97;4.70;;;;;;;;;;5040086;28;20044;-74
2022/04/17 01:09:29;;;;;;;6.18;4.95;;;;;;;;;;5026113;28;20383;-74
2022/04/17 01:11:56;;;;;;;6.45;4.45;;;;;;;;;;5041055;28;20056;-74
2022/04/17 01:14:22;;;;;;;6.50;4.80;;;;;;;;;;5040663;28;20057;-74
2022/04/17 01:16:48;;;;;;;6.18;5.57;;;;;;;;;;5045104;28;20033;-74
2022/04/17 01:19:14;;;;;;;9.80;6.05;;;;;;;;;;5045606;28;20032;-73
2022/04/17 01:21:41;;;;;;;7.32;4.55;;;;;;;;;;5046494;28;20051;-74
2022/04/17 01:26:56;;;;;;;8.00;5.10;;;;;;;;;;5046722;28;20515;-74
2022/04/17 01:29:26;;;;;;;8.40;4.80;;;;;;;;;;5044959;28;20070;-75
2022/04/17 01:31:53;;;;;;;6.18;4.65;;;;;;;;;;5044223;28;20422;-74
2022/04/17 01:34:20;;;;;;;6.05;4.43;;;;;;;;;;5047045;28;20033;-75
2022/04/17 01:36:47;;;;;;;5.97;4.47;;;;;;;;;;5029683;28;20051;-74
2022/04/17 01:39:13;;;;;;;5.15;4.30;;;;;;;;;;5046142;28;20104;-75
2022/04/17 01:41:40;;;;;;;5.65;3.90;;;;;;;;;;5046488;28;20151;-74
2022/04/17 01:44:06;;;;;;;5.97;4.10;;;;;;;;;;5048325;28;20056;-74
2022/04/17 01:46:33;;;;;;;8.68;4.78;;;;;;;;;;5047330;28;20123;-74
2022/04/17 01:48:59;;;;;;;8.25;4.72;;;;;;;;;;5042899;28;20026;-73
2022/04/17 01:51:25;;;;;;;6.07;4.20;;;;;;;;;;5044780;28;20065;-74
2022/04/17 01:53:51;;;;;;;10.82;4.53;;;;;;;;;;5046186;28;20060;-74
2022/04/17 01:56:17;;;;;;;7.72;4.32;;;;;;;;;;5048060;28;20494;-75
2022/04/17 01:58:44;;;;;;;7.03;4.78;;;;;;;;;;5046477;28;20095;-75
2022/04/17 02:01:10;;;;;;;6.93;4.93;;;;;;;;;;5042572;28;20432;-74
2022/04/17 02:03:36;;;;;;;7.57;4.70;;;;;;;;;;5046224;28;20029;-74
2022/04/17 02:06:02;;;;;;;6.05;4.65;;;;;;;;;;5043758;28;20032;-74
2022/04/17 02:08:28;;;;;;;4.65;4.25;;;;;;;;;;5043071;28;20054;-75
2022/04/17 02:10:57;;;;;;;6.07;4.40;;;;;;;;;;5046626;28;20045;-75
2022/04/17 02:13:24;;;;;;;5.00;4.03;;;;;;;;;;5045182;28;20028;-74
2022/04/17 02:15:53;;;;;;;8.10;4.63;;;;;;;;;;5042833;28;20040;-75
2022/04/17 02:18:20;;;;;;;8.52;4.60;;;;;;;;;;5044675;28;20029;-74
2022/04/17 02:20:47;;;;;;;8.38;4.78;;;;;;;;;;5025990;28;20025;-74
2022/04/17 02:23:13;;;;;;;6.25;4.70;;;;;;;;;;5045790;28;20487;-75
2022/04/17 02:25:39;;;;;;;7.15;4.85;;;;;;;;;;5046068;28;20040;-75
2022/04/17 02:28:05;;;;;;;5.78;4.80;;;;;;;;;;5046000;28;20025;-74
2022/04/17 02:30:31;;;;;;;6.20;4.28;;;;;;;;;;5025846;28;20041;-74
2022/04/17 02:32:58;;;;;;;6.93;4.45;;;;;;;;;;5043871;28;20577;-74
2022/04/17 02:35:24;;;;;;;5.80;4.40;;;;;;;;;;5048566;28;20060;-75
2022/04/17 02:37:50;;;;;;;5.38;4.03;;;;;;;;;;5044668;28;20033;-74
2022/04/17 02:40:16;;;;;;;6.95;4.80;;;;;;;;;;5045179;28;20028;-74
2022/04/17 02:42:43;;;;;;;8.05;4.78;;;;;;;;;;5044733;28;20021;-74
2022/04/17 02:45:09;;;;;;;8.23;5.35;;;;;;;;;;5045087;28;20021;-74
2022/04/17 02:47:45;;;;;;;7.93;4.40;;;;;;;;;;5047440;28;20104;-74
2022/04/17 02:50:12;;;;;;;8.25;4.70;;;;;;;;;;5043604;28;20567;-74
2022/04/17 02:52:39;;;;;;;7.10;4.47;;;;;;;;;;5045913;28;20028;-73
2022/04/17 02:55:05;;;;;;;7.43;4.68;;;;;;;;;;5047103;28;20029;-74
2022/04/17 02:57:31;;;;;;;5.95;4.78;;;;;;;;;;5048107;28;20025;-74
2022/04/17 02:59:58;;;;;;;6.85;5.40;;;;;;;;;;5044352;28;20025;-75
2022/04/17 03:07:54;;;;;;;9.13;4.65;;;;;;;;;;5044814;28;20134;-77
2022/04/17 03:10:21;;;;;;;7.82;5.32;;;;;;;;;;5050863;28;20022;-75
2022/04/17 03:12:47;;;;;;;9.63;5.30;;;;;;;;;;5047163;28;20391;-75
2022/04/17 03:15:13;;;;;;;7.60;5.60;;;;;;;;;;5048144;28;20137;-75
2022/04/17 03:17:40;;;;;;;7.80;5.10;;;;;;;;;;5045782;28;20041;-74
2022/04/17 03:20:07;;;;;;;6.30;4.70;;;;;;;;;;5043737;28;20033;-74
2022/04/17 03:22:33;;;;;;;8.00;5.00;;;;;;;;;;5047806;28;20027;-73
2022/04/17 03:25:04;;;;;;;8.70;4.78;;;;;;;;;;5046294;28;20035;-74
2022/04/17 03:27:30;;;;;;;8.80;5.03;;;;;;;;;;5045423;28;20032;-74
2022/04/17 03:29:56;;;;;;;8.10;5.63;;;;;;;;;;5036810;28;20056;-75
2022/04/17 03:32:22;;;;;;;8.80;5.40;;;;;;;;;;5040058;28;20403;-75
2022/04/17 03:34:48;;;;;;;9.40;5.20;;;;;;;;;;5044201;28;20033;-75
2022/04/17 03:37:15;;;;;;;7.93;5.00;;;;;;;;;;5044678;28;20051;-74
2022/04/17 03:39:41;;;;;;;11.07;5.47;;;;;;;;;;5024140;28;20147;-74
2022/04/17 03:42:08;;;;;;;6.82;5.15;;;;;;;;;;5039602;28;20107;-74
2022/04/17 03:44:34;;;;;;;9.13;5.65;;;;;;;;;;5042100;28;20071;-74
2022/04/17 03:47:01;;;;;;;9.48;5.57;;;;;;;;;;5045888;28;20021;-74
2022/04/17 03:49:29;;;;;;;8.05;5.90;;;;;;;;;;5043135;28;20035;-75
2022/04/17 03:51:55;;;;;;;12.13;6.10;;;;;;;;;;5039857;28;20535;-74
2022/04/17 03:54:21;;;;;;;9.45;6.38;;;;;;;;;;5044645;28;20033;-74
2022/04/17 03:56:47;;;;;;;12.70;5.72;;;;;;;;;;5043998;28;20494;-74
2022/04/17 03:59:14;;;;;;;9.10;5.97;;;;;;;;;;5044190;28;20055;-75
2022/04/17 04:01:40;;;;;;;11.15;6.57;;;;;;;;;;5044386;28;21466;-75
2022/04/17 04:04:06;;;;;;;7.45;5.60;;;;;;;;;;5045765;28;20444;-74
2022/04/17 04:06:33;;;;;;;8.65;6.10;;;;;;;;;;5045205;28;20025;-74
2022/04/17 04:08:59;;;;;;;14.55;6.95;;;;;;;;;;5045905;28;20040;-73
2022/04/17 04:11:26;;;;;;;11.68;5.78;;;;;;;;;;5040622;28;20113;-74
2022/04/17 04:13:54;;;;;;;11.88;7.13;;;;;;;;;;5043769;28;20039;-75
2022/04/17 04:16:20;;;;;;;9.27;6.05;;;;;;;;;;5049563;28;20028;-74
2022/04/17 04:18:46;;;;;;;10.45;6.30;;;;;;;;;;5045229;28;20025;-74
2022/04/17 04:21:12;;;;;;;8.95;6.20;;;;;;;;;;5031325;28;20029;-74
2022/04/17 04:23:39;;;;;;;10.50;6.22;;;;;;;;;;5042844;28;20025;-74
2022/04/17 04:26:05;;;;;;;12.73;6.63;;;;;;;;;;5040882;28;20025;-74
2022/04/17 04:28:38;;;;;;;9.45;5.78;;;;;;;;;;5040573;28;20125;-75
2022/04/17 04:31:11;;;;;;;9.50;6.10;;;;;;;;;;5043222;28;20032;-75
2022/04/17 04:33:38;;;;;;;9.13;6.65;;;;;;;;;;5027112;28;20036;-74
2022/04/17 04:36:05;;;;;;;11.70;7.40;;;;;;;;;;5046680;28;20060;-76
2022/04/17 04:38:31;;;;;;;11.18;7.00;;;;;;;;;;5043776;28;20032;-75
2022/04/17 04:41:01;;;;;;;12.13;6.88;;;;;;;;;;5043889;28;20033;-75
2022/04/17 04:43:28;;;;;;;10.52;6.35;;;;;;;;;;5040324;28;20025;-75
2022/04/17 04:46:06;;;;;;;10.18;6.32;;;;;;;;;;5041195;28;20029;-75
2022/04/17 04:51:17;;;;;;;11.35;7.13;;;;;;;;;;5044199;28;20072;-76
2022/04/17 04:53:44;;;;;;;14.45;8.45;;;;;;;;;;5045308;28;20434;-75
2022/04/17 04:56:10;;;;;;;12.18;8.20;;;;;;;;;;5042135;28;20028;-75
2022/04/17 04:58:36;;;;;;;16.25;8.13;;;;;;;;;;5041118;28;20033;-74
2022/04/17 05:01:02;;;;;;;13.18;7.65;;;;;;;;;;5041597;28;20025;-73
2022/04/17 05:03:29;;;;;;;12.77;8.15;;;;;;;;;;5043027;28;20029;-74
2022/04/17 05:05:55;;;;;;;12.77;7.57;;;;;;;;;;5042654;28;20025;-75
2022/04/17 05:08:21;;;;;;;14.50;8.18;;;;;;;;;;5039457;28;20045;-75
2022/04/17 05:10:47;;;;;;;10.95;8.05;;;;;;;;;;5043961;28;20036;-75
2022/04/17 05:13:13;;;;;;;12.60;7.53;;;;;;;;;;5042463;28;20395;-75
2022/04/17 05:15:40;;;;;;;11.98;7.15;;;;;;;;;;5043896;28;20036;-74
2022/04/17 05:18:06;;;;;;;15.82;7.93;;;;;;;;;;5045469;28;20033;-75
2022/04/17 05:20:35;;;;;;;11.95;7.30;;;;;;;;;;5045428;28;20090;-75
2022/04/17 05:23:26;;;;;;;14.63;7.88;;;;;;;;;;5044023;28;20029;-76
2022/04/17 05:25:55;;;;;;;10.63;7.43;;;;;;;;;;5044353;28;20029;-75
2022/04/17 05:28:22;;;;;;;11.27;6.63;;;;;;;;;;5024134;28;20095;-75
2022/04/17 05:30:48;;;;;;;11.80;7.82;;;;;;;;;;5043702;28;20064;-75
2022/04/17 05:33:17;;;;;;;13.85;7.85;;;;;;;;;;5024022;28;20479;-75
2022/04/17 05:35:43;;;;;;;12.27;7.32;;;;;;;;;;5043888;28;20369;-75
2022/04/17 05:38:09;;;;;;;12.05;7.55;;;;;;;;;;5044665;28;20402;-75
2022/04/17 05:40:38;;;;;;;11.57;7.07;;;;;;;;;;5044245;28;20028;-75
2022/04/17 05:43:05;;;;;;;8.50;5.80;;;;;;;;;;5042123;28;20029;-76
2022/04/17 05:45:32;;;;;;;10.75;6.75;;;;;;;;;;5044713;28;20025;-75
2022/04/17 05:47:59;;;;;;;11.45;7.90;;;;;;;;;;5043701;28;20029;-75
2022/04/17 05:50:25;;;;;;;16.27;8.27;;;;;;;;;;5040102;28;20040;-75
2022/04/17 05:52:51;;;;;;;12.10;7.22;;;;;;;;;;5025254;28;20033;-74
2022/04/17 05:55:17;;;;;;;10.43;7.53;;;;;;;;;;5041620;28;20439;-75
2022/04/17 05:57:43;;;;;;;11.38;6.80;;;;;;;;;;5041623;28;20120;-75
2022/04/17 06:00:10;;;;;;;8.95;5.93;;;;;;;;;;5042668;28;20395;-74
2022/04/17 06:02:36;;;;;;;9.15;6.05;;;;;;;;;;5042116;28;20028;-75
2022/04/17 06:05:03;;;;;;;13.00;6.88;;;;;;;;;;5045273;28;20554;-76
2022/04/17 06:07:30;;;;;;;10.63;6.68;;;;;;;;;;5028775;28;20052;-75
2022/04/17 06:09:56;;;;;;;12.52;7.97;;;;;;;;;;5030895;28;20032;-75
2022/04/17 06:12:22;;;;;;;10.35;7.15;;;;;;;;;;5047625;28;20029;-75
2022/04/17 06:14:48;;;;;;;13.07;8.05;;;;;;;;;;5046020;28;20037;-74
2022/04/17 06:17:14;;;;;;;17.13;8.73;;;;;;;;;;5048064;28;20021;-75
2022/04/17 06:19:41;;;;;;;13.35;7.38;;;;;;;;;;5025946;28;20395;-75
2022/04/17 06:22:10;;;;;;;16.38;8.27;;;;;;;;;;5046111;28;20024;-75
2022/04/17 06:24:36;;;;;;;13.50;8.15;;;;;;;;;;5045321;28;20025;-75
2022/04/17 06:27:02;;;;;;;17.98;9.30;;;;;;;;;;5046097;28;20040;-74
2022/04/17 06:29:28;;;;;;;13.05;7.72;;;;;;;;;;5045572;28;20114;-75
2022/04/17 06:31:55;;;;;;;15.95;8.45;;;;;;;;;;5044362;28;20037;-75
2022/04/17 06:34:21;;;;;;;14.10;9.40;;;;;;;;;;5047624;28;20021;-75
2022/04/17 06:36:47;;;;;;;16.58;9.32;;;;;;;;;;5046564;28;20106;-74
2022/04/17 06:39:14;;;;;;;18.25;8.77;;;;;;;;;;5045301;28;20158;-75
2022/04/17 06:41:40;;;;;;;13.10;7.10;;;;;;;;;;5044269;28;20483;-74
2022/04/17 06:44:06;;;;;;;10.57;7.40;;;;;;;;;;5042070;28;20052;-74
2022/04/17 06:46:35;;;;;;;13.30;8.23;;;;;;;;;;5045657;28;20141;-75
2022/04/17 06:49:02;;;;;;;14.80;8.23;;;;;;;;;;5044045;28;20032;-74
2022/04/17 06:51:28;;;;;;;11.82;7.07;;;;;;;;;;5043636;28;20029;-75
2022/04/17 06:53:54;;;;;;;13.45;7.60;;;;;;;;;;5046271;28;20032;-74
2022/04/17 06:56:20;;;;;;;12.05;7.10;;;;;;;;;;5040860;28;20025;-75
2022/04/17 06:58:46;;;;;;;12.90;7.60;;;;;;;;;;5045351;28;20026;-75
2022/04/17 07:01:14;;;;;;;15.38;7.78;;;;;;;;;;5045753;28;20028;-74
2022/04/17 07:03:41;;;;;;;11.88;7.35;;;;;;;;;;5038493;28;20027;-75
2022/04/17 07:06:07;;;;;;;10.57;6.97;;;;;;;;;;5044941;28;20079;-75
2022/04/17 07:08:33;;;;;;;10.55;7.50;;;;;;;;;;5044947;28;20072;-74
2022/04/17 07:10:59;;;;;;;11.48;7.45;;;;;;;;;;5042891;28;20163;-74
2022/04/17 07:13:26;;;;;;;11.80;7.07;;;;;;;;;;5043438;28;20526;-74
2022/04/17 07:15:52;;;;;;;11.93;7.20;;;;;;;;;;5044586;28;21245;-75
2022/04/17 07:18:18;;;;;;;12.00;8.07;;;;;;;;;;5044812;28;20471;-75
2022/04/17 07:20:45;;;;;;;13.32;7.60;;;;;;;;;;5042907;28;20064;-74
2022/04/17 07:23:11;;;;;;;11.30;7.28;;;;;;;;;;5044073;28;20598;-75
2022/04/17 07:25:37;;;;;;;15.52;8.65;;;;;;;;;;5039921;28;20472;-75
2022/04/17 07:28:04;;;;;;;11.90;6.90;;;;;;;;;;5041768;28;20098;-75
2022/04/17 07:30:31;;;;;;;11.10;7.18;;;;;;;;;;5048586;28;20033;-75
2022/04/17 07:32:59;;;;;;;13.68;8.60;;;;;;;;;;5045233;28;20031;-74
2022/04/17 07:35:26;;;;;;;12.35;7.93;;;;;;;;;;5041885;28;20490;-75
2022/04/17 07:37:56;;;;;;;14.60;8.38;;;;;;;;;;5029383;28;20033;-75
2022/04/17 07:40:27;;;;;;;15.77;8.35;;;;;;;;;;5041176;28;20027;-75
2022/04/17 07:42:54;;;;;;;10.60;6.97;;;;;;;;;;5043282;28;20406;-76
2022/04/17 07:45:20;;;;;;;13.88;8.07;;;;;;;;;;5042283;28;20067;-75
2022/04/17 07:47:47;;;;;;;18.42;8.43;;;;;;;;;;5042033;28;20523;-75
2022/04/17 07:50:14;;;;;;;13.32;8.27;;;;;;;;;;5037979;28;20154;-75
2022/04/17 07:52:41;;;;;;;13.75;7.78;;;;;;;;;;5039950;28;20026;-75
2022/04/17 07:55:08;;;;;;;13.70;6.95;;;;;;;;;;5046974;28;20521;-76
2022/04/17 08:00:21;;;;;;;12.87;8.00;;;;;;;;;;5044014;28;20032;-75
2022/04/17 08:02:53;;;;;;;12.25;7.32;;;;;;;;;;5045361;28;20510;-75
2022/04/17 08:05:21;;;;;;;14.38;8.55;;;;;;;;;;5042673;28;20120;-75
2022/04/17 08:07:47;;;;;;;12.57;7.63;;;;;;;;;;5042635;28;20435;-75
2022/04/17 08:10:14;;;;;;;15.27;8.13;;;;;;;;;;5043409;28;20021;-75
2022/04/17 08:12:40;;;;;;;15.35;8.02;;;;;;;;;;5026067;28;20090;-76
2022/04/17 08:15:06;;;;;;;12.35;7.70;;;;;;;;;;5042438;28;20032;-75
2022/04/17 08:17:32;;;;;;;12.68;7.45;;;;;;;;;;5046539;28;20036;-75
2022/04/17 08:19:58;;;;;;;11.02;7.65;;;;;;;;;;5045663;28;20402;-75
2022/04/17 08:22:25;;;;;;;13.05;8.30;;;;;;;;;;5041478;28;20107;-75
2022/04/17 08:24:51;;;;;;;11.32;7.40;;;;;;;;;;5043071;28;20380;-75
2022/04/17 08:27:17;;;;;;;12.55;7.97;;;;;;;;;;5040275;28;20036;-74
2022/04/17 08:29:43;;;;;;;15.48;8.13;;;;;;;;;;5044216;28;20032;-75
2022/04/17 08:32:09;;;;;;;14.77;7.88;;;;;;;;;;5044423;28;20473;-75
2022/04/17 08:34:35;;;;;;;11.77;7.68;;;;;;;;;;5044830;28;20064;-75
2022/04/17 08:37:01;;;;;;;11.85;7.38;;;;;;;;;;5044797;28;20036;-75
2022/04/17 08:39:27;;;;;;;15.45;8.07;;;;;;;;;;5046624;28;20044;-75
2022/04/17 08:41:54;;;;;;;15.25;8.77;;;;;;;;;;5045932;28;20044;-75
2022/04/17 08:44:22;;;;;;;14.77;8.65;;;;;;;;;;5045483;28;20639;-75
2022/04/17 08:46:48;;;;;;;18.55;10.98;;;;;;;;;;5040341;28;20035;-75
2022/04/17 08:49:14;;;;;;;21.10;10.57;;;;;;;;;;5039278;28;20037;-75
2022/04/17 08:51:47;;;;;;;15.45;9.88;;;;;;;;;;5041278;28;20056;-74
2022/04/17 08:54:14;;;;;;;19.83;10.38;;;;;;;;;;5043386;28;20029;-75
2022/04/17 08:56:40;;;;;;;21.00;10.10;;;;;;;;;;5042447;28;20294;-75
2022/04/17 08:59:06;;;;;;;15.40;9.55;;;;;;;;;;5041543;28;20106;-75
2022/04/17 09:01:36;;;;;;;16.15;9.38;;;;;;;;;;5048072;28;20108;-75
2022/04/17 09:04:02;;;;;;;14.60;8.77;;;;;;;;;;5044681;28;20119;-74
2022/04/17 09:06:29;;;;;;;15.25;8.35;;;;;;;;;;5042223;28;20025;-75
2022/04/17 09:09:03;;;;;;;12.55;8.45;;;;;;;;;;5045488;28;20071;-75
2022/04/17 09:11:29;;;;;;;17.02;9.45;;;;;;;;;;5040139;28;20498;-75
2022/04/17 09:13:56;;;;;;;19.05;10.00;;;;;;;;;;5046724;28;20033;-76
2022/04/17 09:16:34;;;;;;;17.80;10.30;;;;;;;;;;5050422;28;20390;-75
2022/04/17 09:19:00;;;;;;;20.63;10.77;;;;;;;;;;5043561;28;20471;-75
2022/04/17 09:21:33;;;;;;;18.42;9.95;;;;;;;;;;5042797;28;20036;-76
2022/04/17 09:24:16;;;;;;;15.00;8.43;;;;;;;;;;5043781;28;20088;-76
2022/04/17 09:26:50;;;;;;;14.65;9.23;;;;;;;;;;5029292;28;20029;-76
2022/04/17 09:29:24;;;;;;;19.38;10.27;;;;;;;;;;5046142;28;20601;-75
2022/04/17 09:32:08;;;;;;;16.58;9.57;;;;;;;;;;5047377;28;20486;-75
2022/04/17 09:34:49;;;;;;;16.10;9.63;;;;;;;;;;5041822;28;20035;-76
2022/04/17 09:37:17;;;;;;;20.20;9.90;;;;;;;;;;5043428;28;20765;-75
2022/04/17 09:39:44;;;;;;;16.63;9.52;;;;;;;;;;5022430;28;20036;-75
2022/04/17 09:42:10;;;;;;;19.92;9.95;;;;;;;;;;5044387;28;20033;-75
2022/04/17 09:44:36;;;;;;;18.17;10.10;;;;;;;;;;5030836;28;20079;-75
2022/04/17 09:47:03;;;;;;;16.27;9.57;;;;;;;;;;5048842;28;20473;-75
2022/04/17 09:49:30;;;;;;;17.08;9.95;;;;;;;;;;5047419;28;20136;-75
2022/04/17 09:52:09;;;;;;;18.65;11.07;;;;;;;;;;5042096;28;20037;-74
2022/04/17 09:54:35;;;;;;;20.83;11.35;;;;;;;;;;5049136;28;20111;-75
2022/04/17 09:57:02;;;;;;;22.20;11.38;;;;;;;;;;5046897;28;20029;-75
2022/04/17 09:59:28;;;;;;;22.00;11.27;;;;;;;;;;5047137;28;20029;-75
2022/04/17 10:01:57;;;;;;;20.85;12.02;;;;;;;;;;5044193;28;20021;-75
2022/04/17 10:04:25;;;;;;;23.35;12.70;;;;;;;;;;5030129;28;20610;-76
2022/04/17 10:06:52;;;;;;;21.63;11.95;;;;;;;;;;5048244;28;20056;-75
2022/04/17 10:09:19;;;;;;;23.75;11.93;;;;;;;;;;5045610;28;20029;-75
2022/04/17 10:11:45;;;;;;;21.52;11.68;;;;;;;;;;5047078;28;20507;-75
2022/04/17 10:14:12;;;;;;;22.85;12.85;;;;;;;;;;5046407;28;20095;-74
2022/04/17 10:16:42;;;;;;;18.58;9.55;;;;;;;;;;5045230;28;20028;-75
2022/04/17 10:19:19;;;;;;;21.42;10.77;;;;;;;;;;5026098;28;20431;-76
2022/04/17 10:21:46;;;;;;;25.88;12.35;;;;;;;;;;5043763;28;20025;-75
2022/04/17 10:24:16;;;;;;;18.23;10.27;;;;;;;;;;5040499;28;20040;-73
2022/04/17 10:26:46;;;;;;;24.10;12.52;;;;;;;;;;5041771;28;20033;-74
2022/04/17 10:29:31;;;;;;;21.33;10.88;;;;;;;;;;5043857;28;20029;-73
2022/04/17 10:32:18;;;;;;;23.85;11.20;;;;;;;;;;5025442;28;20035;-76
2022/04/17 10:34:48;;;;;;;19.35;11.95;;;;;;;;;;5041133;28;20028;-73
2022/04/17 10:37:20;;;;;;;23.77;12.18;;;;;;;;;;5042387;28;20028;-74
2022/04/17 10:39:49;;;;;;;22.77;11.73;;;;;;;;;;5039378;28;20082;-74
2022/04/17 10:42:15;;;;;;;23.75;12.05;;;;;;;;;;5040871;28;20021;-73
2022/04/17 10:44:41;;;;;;;25.90;13.00;;;;;;;;;;5039894;28;20079;-75
2022/04/17 10:47:20;;;;;;;25.55;12.13;;;;;;;;;;5040523;28;20021;-73
2022/04/17 10:49:53;;;;;;;22.80;12.90;;;;;;;;;;5038310;28;20037;-73
2022/04/17 10:52:29;;;;;;;24.25;12.88;;;;;;;;;;5039919;28;20035;-72
2022/04/17 10:54:56;;;;;;;24.13;12.07;;;;;;;;;;5040226;28;20025;-73
2022/04/17 10:57:25;;;;;;;28.65;14.02;;;;;;;;;;5040645;28;20395;-73
2022/04/17 11:00:11;;;;;;;28.92;13.75;;;;;;;;;;5042848;28;20032;-72
2022/04/17 11:02:37;;;;;;;26.33;13.95;;;;;;;;;;5041902;28;20029;-72
2022/04/17 11:05:06;;;;;;;27.80;13.23;;;;;;;;;;5039756;28;20025;-71
2022/04/17 11:07:32;;;;;;;27.02;13.13;;;;;;;;;;5039629;28;20056;-72
2022/04/17 11:10:18;;;;;;;21.58;12.15;;;;;;;;;;5040175;28;20103;-72
2022/04/17 11:12:50;;;;;;;27.23;13.20;;;;;;;;;;5040421;28;20036;-73
2022/04/17 11:15:17;;;;;;;28.30;13.73;;;;;;;;;;5042361;28;20040;-75
2022/04/17 11:17:43;;;;;;;26.05;13.02;;;;;;;;;;5041454;28;20115;-73
2022/04/17 11:20:10;;;;;;;28.10;12.93;;;;;;;;;;5040698;28;20033;-73
2022/04/17 11:22:36;;;;;;;22.65;12.98;;;;;;;;;;5037927;28;20504;-74
2022/04/17 11:25:12;;;;;;;21.77;12.38;;;;;;;;;;5040607;28;20032;-74
2022/04/17 11:27:42;;;;;;;24.17;12.23;;;;;;;;;;5041125;28;20556;-74
2022/04/17 11:30:14;;;;;;;26.27;12.77;;;;;;;;;;5038189;28;20032;-75
2022/04/17 11:32:40;;;;;;;23.85;12.50;;;;;;;;;;5041064;28;20257;-74
2022/04/17 11:35:10;;;;;;;20.60;11.00;;;;;;;;;;5040236;28;20100;-74
2022/04/17 11:37:36;;;;;;;20.98;11.60;;;;;;;;;;5041795;28;20029;-74
2022/04/17 11:40:16;;;;;;;27.88;12.88;;;;;;;;;;5040894;28;20063;-73
2022/04/17 11:42:45;;;;;;;23.70;11.25;;;;;;;;;;5042327;28;20025;-73
2022/04/17 11:45:12;;;;;;;24.15;11.68;;;;;;;;;;5037700;28;20501;-73
2022/04/17 11:47:41;;;;;;;19.77;11.55;;;;;;;;;;5042378;28;20447;-73
2022/04/17 11:50:11;;;;;;;23.10;12.15;;;;;;;;;;5040640;28;20104;-73
2022/04/17 11:52:37;;;;;;;20.02;10.80;;;;;;;;;;5040003;28;20033;-72
2022/04/17 11:55:04;;;;;;;20.52;11.60;;;;;;;;;;5038455;28;20025;-71
2022/04/17 11:57:32;;;;;;;19.83;12.27;;;;;;;;;;5041353;28;20048;-72
2022/04/17 11:59:58;;;;;;;23.40;13.27;;;;;;;;;;5040582;28;20033;-73
2022/04/17 12:02:25;;;;;;;26.85;13.02;;;;;;;;;;5039973;28;20057;-72
2022/04/17 12:04:53;;;;;;;24.58;12.43;;;;;;;;;;5040924;28;20053;-73
2022/04/17 12:07:23;;;;;;;20.38;11.52;;;;;;;;;;5038892;28;20044;-72
2022/04/17 12:09:50;;;;;;;19.02;12.50;;;;;;;;;;5040127;28;20025;-73
2022/04/17 12:12:17;;;;;;;22.63;12.20;;;;;;;;;;5038905;28;20037;-73
2022/04/17 12:14:44;;;;;;;19.58;12.73;;;;;;;;;;5039823;28;20033;-73
2022/04/17 12:17:10;;;;;;;22.60;11.70;;;;;;;;;;5036452;28;20479;-75
2022/04/17 12:19:36;;;;;;;23.10;11.85;;;;;;;;;;5039610;28;20033;-74
2022/04/17 12:22:12;;;;;;;20.50;11.93;;;;;;;;;;5037537;28;20087;-73
2022/04/17 12:24:43;;;;;;;24.25;11.30;;;;;;;;;;5037396;28;20097;-73
2022/04/17 12:27:09;;;;;;;16.50;10.43;;;;;;;;;;5034296;28;21095;-72
2022/04/17 12:29:38;;;;;;;22.67;11.23;;;;;;;;;;5040806;28;20036;-74
2022/04/17 12:32:12;;;;;;;16.70;9.27;;;;;;;;;;5038564;28;20155;-74
2022/04/17 12:34:39;;;;;;;16.73;11.73;;;;;;;;;;5038537;28;20044;-73
2022/04/17 12:37:21;;;;;;;19.10;9.90;;;;;;;;;;5037412;28;20040;-73
2022/04/17 12:39:48;;;;;;;16.00;9.63;;;;;;;;;;5039481;28;20063;-72
2022/04/17 12:42:18;;;;;;;16.27;8.63;;;;;;;;;;5037416;28;20450;-74
2022/04/17 12:44:46;;;;;;;17.98;8.38;;;;;;;;;;5038659;28;20408;-73
2022/04/17 12:47:13;;;;;;;14.50;8.15;;;;;;;;;;5038158;28;21136;-74
2022/04/17 12:49:39;;;;;;;12.68;7.88;;;;;;;;;;5039939;28;20036;-73
2022/04/17 12:52:06;;;;;;;15.52;8.57;;;;;;;;;;5039226;28;20087;-72
2022/04/17 12:54:33;;;;;;;11.43;7.13;;;;;;;;;;5039532;28;20044;-73
2022/04/17 12:57:05;;;;;;;9.90;6.82;;;;;;;;;;5038396;28;20032;-73
2022/04/17 12:59:50;;;;;;;9.38;5.95;;;;;;;;;;5032624;28;20029;-73
2022/04/17 13:02:19;;;;;;;9.25;5.35;;;;;;;;;;5042924;28;20073;-74
2022/04/17 13:04:46;;;;;;;8.60;5.80;;;;;;;;;;5040338;28;20380;-73
2022/04/17 13:07:13;;;;;;;8.48;5.65;;;;;;;;;;5020130;28;20044;-73
2022/04/17 13:10:09;;;;;;;12.20;6.97;;;;;;;;;;5037575;28;20053;-72
2022/04/17 13:12:45;;;;;;;7.40;5.47;;;;;;;;;;5027649;28;20053;-71
2022/04/17 13:15:12;;;;;;;8.07;4.38;;;;;;;;;;5043983;28;20813;-72
2022/04/17 13:17:45;;;;;;;14.13;9.00;;;;;;;;;;5045371;28;20116;-73
2022/04/17 13:20:11;;;;;;;8.88;5.72;;;;;;;;;;5042667;28;20033;-73
2022/04/17 13:22:38;;;;;;;7.47;5.18;;;;;;;;;;5042039;28;20501;-75
2022/04/17 13:25:05;;;;;;;9.25;5.95;;;;;;;;;;5043564;28;20132;-74
2022/04/17 13:27:31;;;;;;;11.00;6.35;;;;;;;;;;5039700;28;20097;-74
2022/04/17 13:29:57;;;;;;;7.50;4.82;;;;;;;;;;5040902;28;20033;-74
2022/04/17 13:32:23;;;;;;;6.13;4.53;;;;;;;;;;5042290;28;20033;-74
2022/04/17 13:34:49;;;;;;;5.65;3.95;;;;;;;;;;5042089;28;20029;-76
2022/04/17 13:40:00;;;;;;;3.97;2.72;;;;;;;;;;5039381;28;20622;-73
2022/04/17 13:42:26;;;;;;;4.05;2.85;;;;;;;;;;5039541;28;20029;-73
2022/04/17 13:44:52;;;;;;;3.15;2.70;;;;;;;;;;5044730;28;20140;-73
2022/04/17 13:47:18;;;;;;;2.53;2.33;;;;;;;;;;5041113;28;21204;-73
2022/04/17 13:49:44;;;;;;;3.50;2.55;;;;;;;;;;5039923;28;20747;-73
2022/04/17 13:52:11;;;;;;;3.58;2.50;;;;;;;;;;5042557;28;20029;-73
2022/04/17 13:54:37;;;;;;;2.63;2.40;;;;;;;;;;5023716;28;20433;-72
2022/04/17 13:57:03;;;;;;;3.53;2.47;;;;;;;;;;5038935;28;20040;-72
2022/04/17 13:59:30;;;;;;;3.58;2.60;;;;;;;;;;5044285;28;20115;-74
2022/04/17 14:01:56;;;;;;;2.92;2.30;;;;;;;;;;5042658;28;20021;-74
2022/04/17 14:04:22;;;;;;;2.95;2.60;;;;;;;;;;5045852;28;20740;-76
2022/04/17 14:06:49;;;;;;;2.63;2.22;;;;;;;;;;5054205;28;20100;-75
2022/04/17 14:09:15;;;;;;;2.63;2.00;;;;;;;;;;5049702;28;20536;-75
2022/04/17 14:11:42;;;;;;;2.60;2.20;;;;;;;;;;5048582;28;20033;-75
2022/04/17 14:14:08;;;;;;;1.70;1.42;;;;;;;;;;5054034;28;20526;-75
2022/04/17 14:16:34;;;;;;;2.22;1.50;;;;;;;;;;5055599;28;20039;-76
2022/04/17 14:19:02;;;;;;;1.40;1.30;;;;;;;;;;5051632;28;20098;-75
2022/04/17 14:21:28;;;;;;;5.55;4.32;;;;;;;;;;5055294;28;20043;-75
2022/04/17 14:23:54;;;;;;;5.05;4.18;;;;;;;;;;5053806;28;20031;-74
2022/04/17 14:26:21;;;;;;;3.00;2.33;;;;;;;;;;5055915;28;20510;-74
2022/04/17 14:28:47;;;;;;;3.28;2.97;;;;;;;;;;5055962;28;20024;-73
2022/04/17 14:31:13;;;;;;;2.50;2.10;;;;;;;;;;5054646;28;20613;-73
2022/04/17 14:33:40;;;;;;;1.88;1.70;;;;;;;;;;5055130;28;20028;-73
2022/04/17 14:36:06;;;;;;;2.17;1.85;;;;;;;;;;5055372;28;20025;-73
2022/04/17 14:38:32;;;;;;;1.60;1.50;;;;;;;;;;5038029;28;20029;-74
2022/04/17 14:40:58;;;;;;;2.63;2.28;;;;;;;;;;5055059;28;20542;-73
2022/04/17 14:43:24;;;;;;;2.70;2.10;;;;;;;;;;5055696;28;20147;-73
2022/04/17 14:45:52;;;;;;;2.15;1.80;;;;;;;;;;5057317;28;20044;-74
2022/04/17 14:48:18;;;;;;;3.13;2.15;;;;;;;;;;5057496;28;20021;-73
2022/04/17 14:50:45;;;;;;;2.60;2.17;;;;;;;;;;5056123;28;20025;-74
2022/04/17 14:53:11;;;;;;;4.00;2.63;;;;;;;;;;5055380;28;20035;-73